Time;durP1;ratioP1;P1;durP2;ratioP2;P2;SDS_P1;SDS_P2;PMS_P1;PMS_P2;Temp;Humidity;BMP_temperature;BMP_pressure;BME280_temperature;BME280_humidity;BME280_pressure;Samples;Min_cycle;Max_cycle;Signal;HPM_P1;HPM_P2
2021/04/07 00:01:56;;;;;;;2.50;2.30;;;3.30;99.90;;;;;;5094588;28;20695;-67
2021/04/07 00:04:22;;;;;;;4.67;2.60;;;3.30;99.90;;;;;;5094893;28;20208;-66
2021/04/07 00:06:48;;;;;;;3.70;2.47;;;3.30;99.90;;;;;;5094998;28;20577;-66
2021/04/07 00:09:15;;;;;;;3.60;2.60;;;3.20;99.90;;;;;;5095556;28;20466;-67
2021/04/07 00:11:41;;;;;;;3.73;2.70;;;3.20;99.90;;;;;;5095133;28;20224;-65
2021/04/07 00:14:09;;;;;;;4.57;2.77;;;3.20;99.90;;;;;;5094320;28;20591;-67
2021/04/07 00:16:37;;;;;;;4.97;2.83;;;3.20;99.90;;;;;;5094896;28;20212;-65
2021/04/07 00:19:06;;;;;;;2.60;2.40;;;3.20;99.90;;;;;;5094816;28;20232;-66
2021/04/07 00:21:32;;;;;;;3.97;2.70;;;3.10;99.90;;;;;;5095522;28;20269;-66
2021/04/07 00:23:59;;;;;;;5.37;3.00;;;3.00;99.90;;;;;;5095010;28;20211;-66
2021/04/07 00:26:25;;;;;;;4.70;3.03;;;3.00;99.90;;;;;;5095061;28;20726;-67
2021/04/07 00:28:51;;;;;;;4.63;3.00;;;2.90;99.90;;;;;;5094841;28;20250;-66
2021/04/07 00:31:17;;;;;;;17.30;12.73;;;2.80;99.90;;;;;;5094594;28;20220;-66
2021/04/07 00:33:44;;;;;;;4.40;3.43;;;2.80;99.90;;;;;;5094806;28;20208;-65
2021/04/07 00:36:11;;;;;;;3.97;3.20;;;2.80;99.90;;;;;;5094472;28;20211;-67
2021/04/07 00:38:37;;;;;;;4.30;2.83;;;2.90;99.90;;;;;;5095271;28;20223;-67
2021/04/07 00:41:04;;;;;;;4.83;3.37;;;2.90;99.90;;;;;;5094996;28;20207;-66
2021/04/07 00:43:30;;;;;;;3.20;2.83;;;2.80;99.90;;;;;;5094538;28;20455;-66
2021/04/07 00:45:56;;;;;;;4.10;3.13;;;2.70;99.90;;;;;;5095825;28;20628;-66
2021/04/07 00:48:23;;;;;;;4.17;3.50;;;2.60;99.90;;;;;;5093774;28;20737;-66
2021/04/07 00:50:50;;;;;;;4.67;3.13;;;2.60;99.90;;;;;;5094063;28;20703;-66
2021/04/07 00:53:16;;;;;;;4.10;3.00;;;2.70;99.90;;;;;;5094208;28;20270;-66
2021/04/07 00:55:45;;;;;;;5.70;3.17;;;2.70;99.90;;;;;;5094073;28;20223;-66
2021/04/07 00:58:12;;;;;;;4.83;2.60;;;2.80;99.90;;;;;;5093801;28;20216;-66
2021/04/07 01:00:39;;;;;;;3.17;2.40;;;2.80;99.90;;;;;;5095586;28;20723;-65
2021/04/07 01:03:05;;;;;;;4.00;2.80;;;2.80;99.90;;;;;;5094799;28;20211;-65
2021/04/07 01:05:32;;;;;;;4.87;2.73;;;2.90;99.90;;;;;;5093833;28;20668;-65
2021/04/07 01:08:00;;;;;;;3.03;2.73;;;3.00;99.90;;;;;;5093978;28;20207;-65
2021/04/07 01:10:27;;;;;;;4.80;2.50;;;2.90;99.90;;;;;;5094121;28;20228;-66
2021/04/07 01:12:53;;;;;;;2.57;2.37;;;2.80;99.90;;;;;;5093530;28;20212;-66
2021/04/07 01:15:20;;;;;;;2.90;2.30;;;2.80;99.90;;;;;;5093608;28;20626;-66
2021/04/07 01:17:47;;;;;;;3.80;2.30;;;2.70;99.90;;;;;;5094007;28;20228;-66
2021/04/07 01:20:15;;;;;;;4.70;2.60;;;2.60;99.90;;;;;;5093476;28;20828;-66
2021/04/07 01:22:42;;;;;;;5.10;3.07;;;2.70;99.90;;;;;;5093235;28;20205;-66
2021/04/07 01:25:11;;;;;;;3.87;2.80;;;2.60;99.90;;;;;;5094377;28;20205;-65
2021/04/07 01:27:38;;;;;;;3.83;2.97;;;2.60;99.90;;;;;;5093760;28;20212;-66
2021/04/07 01:30:07;;;;;;;4.27;2.63;;;2.70;99.90;;;;;;5093658;28;20293;-65
2021/04/07 01:32:33;;;;;;;4.17;2.87;;;2.70;99.90;;;;;;5093509;28;20563;-66
2021/04/07 01:34:59;;;;;;;3.40;2.87;;;2.70;99.90;;;;;;5093406;28;20204;-67
2021/04/07 01:37:25;;;;;;;3.17;2.80;;;2.70;99.90;;;;;;5093745;28;20207;-66
2021/04/07 01:39:52;;;;;;;5.53;3.00;;;2.70;99.90;;;;;;5092935;28;20224;-66
2021/04/07 01:42:19;;;;;;;3.10;2.40;;;2.60;99.90;;;;;;5092969;28;20204;-66
2021/04/07 01:44:46;;;;;;;3.07;2.50;;;2.60;99.90;;;;;;5093802;28;20215;-65
2021/04/07 01:47:13;;;;;;;3.57;2.80;;;2.70;99.90;;;;;;5093296;28;20219;-65
2021/04/07 01:49:39;;;;;;;3.07;2.77;;;2.70;99.90;;;;;;5093590;28;20227;-66
2021/04/07 01:52:06;;;;;;;3.63;2.73;;;2.70;99.90;;;;;;5093130;28;20721;-66
2021/04/07 01:54:34;;;;;;;4.20;2.80;;;2.80;99.90;;;;;;5092852;28;20199;-66
2021/04/07 01:57:00;;;;;;;3.53;2.60;;;2.80;99.90;;;;;;5093383;28;20204;-66
2021/04/07 01:59:29;;;;;;;6.07;3.50;;;2.80;99.90;;;;;;5092913;28;20236;-65
2021/04/07 02:01:56;;;;;;;3.50;3.00;;;2.80;99.90;;;;;;5094507;28;20204;-66
2021/04/07 02:04:23;;;;;;;3.50;2.80;;;2.90;99.90;;;;;;5093851;28;20200;-65
2021/04/07 02:06:50;;;;;;;3.83;2.90;;;2.80;99.90;;;;;;5093916;28;20204;-65
2021/04/07 02:09:18;;;;;;;6.17;3.37;;;2.80;99.90;;;;;;5092796;28;20263;-65
2021/04/07 02:11:45;;;;;;;3.30;2.83;;;2.90;99.90;;;;;;5092828;28;20679;-66
2021/04/07 02:14:11;;;;;;;4.77;2.97;;;2.90;99.90;;;;;;5092353;28;20204;-65
2021/04/07 02:16:38;;;;;;;5.27;3.00;;;2.90;99.90;;;;;;5092524;28;20208;-65
2021/04/07 02:19:07;;;;;;;3.90;3.07;;;2.90;99.90;;;;;;5091966;28;20228;-66
2021/04/07 02:21:34;;;;;;;3.80;3.37;;;2.90;99.90;;;;;;5091949;28;20211;-65
2021/04/07 02:24:00;;;;;;;5.30;3.47;;;2.90;99.90;;;;;;5091764;28;20204;-65
2021/04/07 02:26:26;;;;;;;6.50;3.47;;;2.90;99.90;;;;;;5091875;28;20269;-65
2021/04/07 02:28:52;;;;;;;5.03;3.20;;;2.80;99.90;;;;;;5091962;28;20220;-65
2021/04/07 02:31:18;;;;;;;6.00;3.10;;;2.70;99.90;;;;;;5091885;28;20683;-65
2021/04/07 02:33:45;;;;;;;4.97;3.37;;;2.70;99.90;;;;;;5091577;28;20204;-65
2021/04/07 02:36:12;;;;;;;5.33;3.43;;;2.70;99.90;;;;;;5091681;28;20204;-65
2021/04/07 02:38:38;;;;;;;6.53;3.33;;;2.60;99.90;;;;;;5091653;28;20224;-65
2021/04/07 02:41:04;;;;;;;4.77;3.10;;;2.70;99.90;;;;;;5091753;28;20281;-65
2021/04/07 02:43:30;;;;;;;4.83;3.17;;;2.80;99.90;;;;;;5091773;28;20672;-65
2021/04/07 02:45:58;;;;;;;5.67;3.17;;;2.90;99.90;;;;;;5092118;28;20208;-65
2021/04/07 02:48:25;;;;;;;4.13;3.40;;;2.90;99.90;;;;;;5091855;28;20200;-65
2021/04/07 02:50:52;;;;;;;4.10;3.27;;;2.90;99.90;;;;;;5091707;28;20683;-64
2021/04/07 02:53:18;;;;;;;4.73;3.27;;;2.90;99.90;;;;;;5090506;28;20204;-65
2021/04/07 02:55:45;;;;;;;4.93;3.70;;;2.90;99.90;;;;;;5091796;28;20227;-65
2021/04/07 02:58:11;;;;;;;4.10;3.57;;;2.90;99.90;;;;;;5091308;28;20286;-65
2021/04/07 03:00:37;;;;;;;8.23;3.80;;;3.00;99.90;;;;;;5106145;22;20234;-62
2021/04/07 03:03:03;;;;;;;5.80;3.60;;;2.90;99.90;;;;;;5090937;28;20690;-62
2021/04/07 03:05:30;;;;;;;5.10;4.10;;;2.80;99.90;;;;;;5090947;28;20289;-61
2021/04/07 03:07:57;;;;;;;4.47;3.77;;;2.90;99.90;;;;;;5091293;28;20702;-63
2021/04/07 03:10:23;;;;;;;5.20;4.03;;;2.90;99.90;;;;;;5091027;28;20224;-61
2021/04/07 03:12:49;;;;;;;5.63;4.40;;;3.10;99.90;;;;;;5090940;28;20223;-60
2021/04/07 03:15:15;;;;;;;5.27;4.00;;;3.00;99.90;;;;;;5090826;28;20212;-61
2021/04/07 03:17:42;;;;;;;9.53;4.17;;;3.00;99.90;;;;;;5090771;28;20261;-61
2021/04/07 03:20:09;;;;;;;5.60;4.00;;;3.00;99.90;;;;;;5090868;28;20267;-61
2021/04/07 03:22:36;;;;;;;6.77;4.30;;;3.00;99.90;;;;;;5090821;28;20259;-62
2021/04/07 03:25:04;;;;;;;6.37;4.70;;;3.10;99.90;;;;;;5090884;28;20632;-60
2021/04/07 03:27:30;;;;;;;7.50;4.80;;;3.00;99.90;;;;;;5090954;28;20417;-60
2021/04/07 03:29:59;;;;;;;8.77;4.37;;;3.00;99.90;;;;;;5090698;28;20717;-60
2021/04/07 03:32:26;;;;;;;6.47;4.40;;;3.00;99.90;;;;;;5090777;28;20232;-61
2021/04/07 03:34:52;;;;;;;6.47;4.73;;;2.90;99.90;;;;;;5090518;28;20299;-61
2021/04/07 03:37:18;;;;;;;5.90;4.60;;;2.90;99.90;;;;;;5090691;28;20208;-62
2021/04/07 03:39:44;;;;;;;5.60;4.37;;;2.90;99.90;;;;;;5090968;28;20238;-61
2021/04/07 03:42:11;;;;;;;7.93;4.60;;;2.90;99.90;;;;;;5090941;28;20241;-61
2021/04/07 03:44:38;;;;;;;7.47;4.60;;;2.80;99.90;;;;;;5090654;28;20537;-61
2021/04/07 03:47:04;;;;;;;6.93;4.40;;;2.90;99.90;;;;;;5090641;28;20208;-61
2021/04/07 03:49:31;;;;;;;7.20;4.23;;;2.90;99.90;;;;;;5090349;28;20733;-60
2021/04/07 03:51:57;;;;;;;6.80;4.33;;;2.90;99.90;;;;;;5091387;28;20209;-61
2021/04/07 03:54:24;;;;;;;6.97;3.97;;;3.00;99.90;;;;;;5091435;28;20211;-61
2021/04/07 03:56:50;;;;;;;6.50;3.80;;;3.00;99.90;;;;;;5090677;28;20210;-61
2021/04/07 03:59:17;;;;;;;6.37;4.17;;;3.00;99.90;;;;;;5090004;28;20228;-61
2021/04/07 04:01:43;;;;;;;6.30;4.30;;;3.10;99.90;;;;;;5090924;28;20250;-61
2021/04/07 04:04:10;;;;;;;5.13;4.07;;;3.10;99.90;;;;;;5090494;28;20215;-61
2021/04/07 04:06:38;;;;;;;7.57;4.27;;;3.10;99.90;;;;;;5094223;28;20214;-61
2021/04/07 04:09:05;;;;;;;7.13;3.93;;;3.10;99.90;;;;;;5094046;28;20299;-61
2021/04/07 04:11:31;;;;;;;5.93;4.07;;;3.00;99.90;;;;;;5094079;28;20212;-61
2021/04/07 04:13:57;;;;;;;6.37;3.90;;;3.00;99.90;;;;;;5093882;28;20208;-61
2021/04/07 04:16:24;;;;;;;6.30;4.93;;;3.00;99.90;;;;;;5093953;28;20680;-61
2021/04/07 04:18:51;;;;;;;4.97;3.87;;;2.90;99.90;;;;;;5093657;28;20227;-62
2021/04/07 04:21:17;;;;;;;4.93;3.57;;;2.90;99.90;;;;;;5094073;28;20204;-61
2021/04/07 04:23:43;;;;;;;5.67;3.63;;;2.80;99.90;;;;;;5093870;28;20208;-62
2021/04/07 04:26:09;;;;;;;7.53;3.93;;;2.80;99.90;;;;;;5093780;28;20613;-61
2021/04/07 04:28:36;;;;;;;5.97;3.73;;;2.60;99.90;;;;;;5093799;28;20259;-62
2021/04/07 04:31:03;;;;;;;6.10;3.43;;;2.70;99.90;;;;;;5093542;28;20259;-61
2021/04/07 04:33:30;;;;;;;8.13;4.13;;;2.80;99.90;;;;;;5093428;28;20200;-61
2021/04/07 04:35:58;;;;;;;5.50;3.80;;;2.80;99.90;;;;;;5093849;28;20215;-61
2021/04/07 04:38:25;;;;;;;6.33;3.67;;;2.70;99.90;;;;;;5093464;28;20600;-61
2021/04/07 04:40:51;;;;;;;5.00;3.50;;;2.80;99.90;;;;;;5093691;28;20235;-62
2021/04/07 04:43:17;;;;;;;6.27;3.83;;;2.80;99.90;;;;;;5093438;28;20707;-62
2021/04/07 04:45:44;;;;;;;4.73;3.33;;;2.90;99.90;;;;;;5093198;28;20255;-62
2021/04/07 04:48:10;;;;;;;4.83;3.47;;;2.80;99.90;;;;;;5093573;28;20204;-62
2021/04/07 04:50:37;;;;;;;5.53;3.17;;;2.80;99.90;;;;;;5093569;28;20228;-62
2021/04/07 04:53:03;;;;;;;5.57;3.27;;;2.80;99.90;;;;;;5093540;28;20204;-63
2021/04/07 04:55:30;;;;;;;5.57;3.00;;;2.80;99.90;;;;;;5093254;28;20261;-61
2021/04/07 04:57:56;;;;;;;5.07;3.30;;;2.90;99.90;;;;;;5093121;28;20594;-61
2021/04/07 05:00:23;;;;;;;4.87;2.70;;;2.90;99.90;;;;;;5092870;28;20232;-61
2021/04/07 05:02:49;;;;;;;6.37;3.40;;;3.00;99.90;;;;;;5093028;28;20223;-61
2021/04/07 05:05:16;;;;;;;5.80;3.20;;;3.10;99.90;;;;;;5093207;28;20616;-61
2021/04/07 05:07:43;;;;;;;5.17;3.33;;;3.20;99.90;;;;;;5092977;28;20201;-61
2021/04/07 05:10:10;;;;;;;3.87;2.73;;;3.10;99.90;;;;;;5093154;28;20750;-61
2021/04/07 05:12:36;;;;;;;3.63;3.00;;;3.10;99.90;;;;;;5092813;28;20203;-61
2021/04/07 05:15:02;;;;;;;5.60;3.10;;;3.10;99.90;;;;;;5092643;28;20204;-63
2021/04/07 05:17:29;;;;;;;5.80;2.93;;;3.20;99.90;;;;;;5092060;28;20208;-62
2021/04/07 05:19:55;;;;;;;6.10;2.87;;;3.30;99.90;;;;;;5092599;28;20609;-62
2021/04/07 05:22:21;;;;;;;4.27;3.00;;;3.20;99.90;;;;;;5092959;28;20215;-62
2021/04/07 05:24:48;;;;;;;4.37;2.73;;;3.20;99.90;;;;;;5092712;28;20211;-62
2021/04/07 05:27:15;;;;;;;7.07;2.90;;;3.20;99.90;;;;;;5092613;28;20224;-62
2021/04/07 05:29:41;;;;;;;6.37;3.90;;;3.30;99.90;;;;;;5092377;28;20279;-62
2021/04/07 05:32:07;;;;;;;3.37;2.73;;;3.40;99.90;;;;;;5093008;28;20215;-62
2021/04/07 05:34:34;;;;;;;5.57;2.80;;;3.40;99.90;;;;;;5092496;28;20204;-62
2021/04/07 05:37:00;;;;;;;5.40;2.53;;;3.40;99.90;;;;;;5092424;28;20672;-62
2021/04/07 05:39:26;;;;;;;4.03;2.47;;;3.40;99.90;;;;;;5092273;28;20232;-62
2021/04/07 05:41:54;;;;;;;6.60;2.50;;;3.50;99.30;;;;;;5092049;28;20584;-60
2021/04/07 05:44:20;;;;;;;6.50;2.60;;;3.50;99.30;;;;;;5092026;28;20597;-60
2021/04/07 05:46:46;;;;;;;4.40;2.57;;;3.60;99.30;;;;;;5092468;28;20204;-60
2021/04/07 05:49:12;;;;;;;4.13;2.20;;;3.70;99.10;;;;;;5092359;28;20255;-60
2021/04/07 05:51:39;;;;;;;4.03;2.17;;;3.80;98.90;;;;;;5092514;28;20208;-60
2021/04/07 05:54:05;;;;;;;5.53;2.30;;;3.90;98.70;;;;;;5092193;28;20200;-61
2021/04/07 05:56:31;;;;;;;3.67;2.37;;;3.90;98.30;;;;;;5092603;28;20207;-61
2021/04/07 05:58:59;;;;;;;2.97;2.57;;;3.90;98.30;;;;;;5091744;28;20277;-61
2021/04/07 06:01:25;;;;;;;6.10;2.90;;;3.90;98.60;;;;;;5092006;28;20208;-61
2021/04/07 06:03:51;;;;;;;5.97;2.60;;;3.90;97.90;;;;;;5091735;28;20517;-61
2021/04/07 06:06:18;;;;;;;3.23;2.50;;;3.80;97.70;;;;;;5092017;28;20212;-61
2021/04/07 06:08:44;;;;;;;4.43;2.73;;;3.80;98.00;;;;;;5091776;28;20227;-61
2021/04/07 06:11:11;;;;;;;4.43;2.33;;;3.90;97.90;;;;;;5091653;28;20251;-61
2021/04/07 06:13:37;;;;;;;5.37;2.70;;;4.00;97.60;;;;;;5092041;28;20204;-61
2021/04/07 06:16:05;;;;;;;5.47;2.73;;;4.10;97.40;;;;;;5091951;28;20341;-61
2021/04/07 06:18:31;;;;;;;5.00;2.50;;;4.10;97.30;;;;;;5091928;28;20220;-62
2021/04/07 06:20:57;;;;;;;3.80;2.57;;;4.20;96.70;;;;;;5091621;28;20224;-62
2021/04/07 06:23:23;;;;;;;3.97;2.40;;;4.30;96.40;;;;;;5091399;28;20666;-62
2021/04/07 06:25:50;;;;;;;6.03;3.23;;;4.30;96.10;;;;;;5091670;28;20269;-61
2021/04/07 06:28:17;;;;;;;4.10;2.60;;;4.40;96.10;;;;;;5091362;28;20200;-61
2021/04/07 06:30:45;;;;;;;5.20;2.67;;;4.50;95.90;;;;;;5091445;28;20224;-62
2021/04/07 06:33:14;;;;;;;4.40;2.30;;;4.60;95.30;;;;;;5091990;28;20204;-62
2021/04/07 06:35:42;;;;;;;5.30;2.70;;;4.70;94.90;;;;;;5091513;28;20215;-64
2021/04/07 06:38:08;;;;;;;3.63;2.47;;;5.10;94.60;;;;;;5091187;28;20207;-65
2021/04/07 06:40:35;;;;;;;5.83;2.73;;;5.70;93.50;;;;;;5091100;28;20570;-66
2021/04/07 06:43:03;;;;;;;6.70;2.27;;;6.70;92.50;;;;;;5091680;28;20205;-66
2021/04/07 06:45:31;;;;;;;5.10;2.33;;;8.60;88.80;;;;;;5091770;28;20234;-64
2021/04/07 06:47:58;;;;;;;4.53;2.50;;;10.60;79.40;;;;;;5091535;28;20201;-65
2021/04/07 06:50:26;;;;;;;5.50;2.30;;;12.90;72.60;;;;;;5091321;28;20229;-67
2021/04/07 06:52:56;;;;;;;3.70;2.27;;;14.40;65.00;;;;;;5091304;28;20216;-65
2021/04/07 06:55:22;;;;;;;2.80;2.00;;;15.00;60.70;;;;;;5091537;28;20204;-63
2021/04/07 06:57:48;;;;;;;3.77;2.10;;;14.30;59.90;;;;;;5091080;28;20667;-65
2021/04/07 07:00:16;;;;;;;5.73;2.40;;;13.30;61.00;;;;;;5090889;28;20276;-65
2021/04/07 07:02:42;;;;;;;5.20;2.73;;;12.40;63.00;;;;;;5091342;28;20626;-64
2021/04/07 07:05:09;;;;;;;4.73;2.13;;;11.40;63.60;;;;;;5091196;28;20204;-64
2021/04/07 07:07:36;;;;;;;7.00;2.87;;;10.70;64.90;;;;;;5091038;28;20212;-65
2021/04/07 07:10:04;;;;;;;4.47;2.03;;;10.30;66.20;;;;;;5091096;28;20703;-65
2021/04/07 07:12:31;;;;;;;5.07;2.37;;;10.10;67.50;;;;;;5091636;28;20272;-64
2021/04/07 07:15:02;;;;;;;5.23;2.40;;;10.00;68.40;;;;;;5091527;28;20239;-64
2021/04/07 07:17:29;;;;;;;5.13;2.27;;;9.70;69.60;;;;;;5091688;28;20295;-64
2021/04/07 07:19:56;;;;;;;5.77;2.30;;;9.60;70.20;;;;;;5090939;28;20781;-65
2021/04/07 07:22:23;;;;;;;5.33;2.00;;;9.60;70.30;;;;;;5090915;28;20212;-65
2021/04/07 07:24:55;;;;;;;9.83;2.30;;;10.00;68.40;;;;;;5090610;28;20667;-65
2021/04/07 07:27:35;;;;;;;5.83;1.70;;;11.50;64.90;;;;;;5091000;28;20200;-65
2021/04/07 07:30:01;;;;;;;3.30;1.70;;;12.80;60.90;;;;;;5090886;28;20591;-66
2021/04/07 07:32:36;;;;;;;6.77;1.90;;;14.30;58.60;;;;;;5091034;28;20204;-64
2021/04/07 07:35:10;;;;;;;4.40;1.80;;;15.70;55.20;;;;;;5090794;28;20211;-65
2021/04/07 07:37:37;;;;;;;4.03;1.93;;;16.10;53.00;;;;;;5091116;28;20210;-65
2021/04/07 07:40:06;;;;;;;3.07;1.60;;;16.20;52.30;;;;;;5092745;28;20232;-66
2021/04/07 07:42:32;;;;;;;3.20;1.80;;;15.30;53.10;;;;;;5094834;28;20207;-64
2021/04/07 07:44:59;;;;;;;3.73;2.00;;;14.50;53.30;;;;;;5094574;28;20208;-64
2021/04/07 07:47:29;;;;;;;4.77;2.30;;;13.10;53.80;;;;;;5094835;28;20253;-63
2021/04/07 07:49:58;;;;;;;6.30;2.00;;;12.00;56.20;;;;;;5094969;28;20277;-65
2021/04/07 07:52:29;;;;;;;5.80;2.37;;;11.10;57.30;;;;;;5094739;28;20265;-63
2021/04/07 07:54:55;;;;;;;7.30;2.03;;;10.40;59.50;;;;;;5094313;28;20692;-64
2021/04/07 07:57:22;;;;;;;4.57;2.10;;;9.70;62.40;;;;;;5094346;28;20246;-64
2021/04/07 07:59:49;;;;;;;5.23;1.90;;;8.80;63.30;;;;;;5094301;28;20227;-64
2021/04/07 08:02:16;;;;;;;5.37;2.20;;;8.50;65.40;;;;;;5094385;28;20254;-66
2021/04/07 08:04:46;;;;;;;4.33;1.90;;;8.30;66.20;;;;;;5093972;28;20214;-65
2021/04/07 08:07:14;;;;;;;2.53;1.70;;;8.00;67.70;;;;;;5094203;28;20204;-65
2021/04/07 08:09:41;;;;;;;4.37;1.90;;;7.60;68.90;;;;;;5093976;28;20251;-65
2021/04/07 08:12:09;;;;;;;6.27;2.50;;;7.30;70.70;;;;;;5093960;28;20204;-64
2021/04/07 08:14:36;;;;;;;5.10;2.10;;;7.00;72.30;;;;;;5094263;28;20243;-65
2021/04/07 08:17:03;;;;;;;4.17;2.23;;;6.80;74.10;;;;;;5094165;28;20206;-65
2021/04/07 08:19:32;;;;;;;3.10;1.70;;;6.90;74.50;;;;;;5093933;28;20229;-65
2021/04/07 08:22:00;;;;;;;3.67;1.60;;;6.80;73.50;;;;;;5094630;28;20204;-65
2021/04/07 08:24:29;;;;;;;4.53;1.70;;;6.90;71.90;;;;;;5094087;28;20289;-65
2021/04/07 08:26:56;;;;;;;2.27;1.63;;;7.00;70.80;;;;;;5094009;28;20211;-64
2021/04/07 08:29:23;;;;;;;4.37;2.00;;;7.20;71.30;;;;;;5094525;28;20220;-64
2021/04/07 08:31:51;;;;;;;3.00;1.70;;;7.40;72.00;;;;;;5094363;28;20204;-65
2021/04/07 08:34:19;;;;;;;4.97;1.83;;;7.40;70.00;;;;;;5094318;28;20200;-65
2021/04/07 08:36:46;;;;;;;5.43;1.70;;;7.20;70.60;;;;;;5094020;28;20667;-64
2021/04/07 08:39:13;;;;;;;4.33;1.60;;;7.00;69.90;;;;;;5093650;28;20605;-64
2021/04/07 08:41:41;;;;;;;2.17;1.40;;;6.80;70.10;;;;;;5094396;28;20204;-63
2021/04/07 08:44:08;;;;;;;3.10;1.73;;;6.50;70.80;;;;;;5093903;28;20302;-65
2021/04/07 08:46:42;;;;;;;2.03;1.57;;;6.30;71.90;;;;;;5093939;28;20204;-64
2021/04/07 08:49:30;;;;;;;8.17;2.50;;;6.20;72.90;;;;;;5093797;28;20222;-66
2021/04/07 08:51:56;;;;;;;5.97;2.47;;;6.20;73.80;;;;;;5094261;28;20261;-65
2021/04/07 08:54:23;;;;;;;5.50;2.00;;;6.20;73.80;;;;;;5093260;28;20204;-64
2021/04/07 08:56:54;;;;;;;2.83;1.60;;;6.20;75.40;;;;;;5093840;28;20254;-64
2021/04/07 08:59:23;;;;;;;3.93;1.30;;;6.30;76.30;;;;;;5093837;28;20232;-65
2021/04/07 09:02:04;;;;;;;8.53;1.93;;;6.40;76.60;;;;;;5093408;28;20596;-64
2021/04/07 09:04:35;;;;;;;6.63;2.17;;;6.70;77.00;;;;;;5093465;28;20211;-64
2021/04/07 09:07:03;;;;;;;7.03;1.90;;;6.50;75.50;;;;;;5093146;28;20659;-58
2021/04/07 09:09:35;;;;;;;4.30;2.03;;;6.50;75.90;;;;;;5093378;28;20307;-55
2021/04/07 09:12:02;;;;;;;4.77;2.20;;;6.50;75.00;;;;;;5093485;28;20220;-56
2021/04/07 09:14:29;;;;;;;3.30;1.70;;;6.80;75.20;;;;;;5093119;28;20257;-55
2021/04/07 09:17:02;;;;;;;2.87;1.90;;;6.80;73.40;;;;;;5093189;28;20568;-57
2021/04/07 09:19:30;;;;;;;3.47;1.90;;;6.80;73.80;;;;;;5093273;28;20608;-56
2021/04/07 09:22:07;;;;;;;5.63;1.83;;;6.70;76.40;;;;;;5093085;28;20304;-58
2021/04/07 09:24:37;;;;;;;5.17;2.00;;;7.00;76.40;;;;;;5092603;28;20204;-57
2021/04/07 09:27:03;;;;;;;4.47;2.23;;;6.90;78.00;;;;;;5092770;28;20204;-57
2021/04/07 09:29:30;;;;;;;3.80;1.92;;;6.80;79.70;;;;;;5088976;28;20437;-61
2021/04/07 09:31:56;;;;;;;4.33;2.20;;;7.20;77.60;;;;;;5092387;28;20208;-61
2021/04/07 09:34:22;;;;;;;3.33;2.23;;;7.50;75.70;;;;;;5092369;28;20220;-60
2021/04/07 09:36:49;;;;;;;3.57;1.97;;;7.90;75.30;;;;;;5092642;28;20238;-61
2021/04/07 09:39:18;;;;;;;3.10;1.77;;;7.90;74.00;;;;;;5092212;28;20254;-60
2021/04/07 09:41:45;;;;;;;2.93;1.70;;;8.10;74.50;;;;;;5092372;28;20208;-60
2021/04/07 09:44:13;;;;;;;3.07;1.93;;;8.00;74.50;;;;;;5092177;28;20204;-61
2021/04/07 09:46:40;;;;;;;4.17;2.13;;;7.90;74.00;;;;;;5092592;28;20205;-61
2021/04/07 09:49:08;;;;;;;4.20;2.00;;;7.80;73.60;;;;;;5092071;28;20667;-60
2021/04/07 09:51:35;;;;;;;3.43;2.07;;;8.00;74.10;;;;;;5092471;28;20294;-60
2021/04/07 09:54:18;;;;;;;4.60;1.73;;;8.50;73.20;;;;;;5091860;28;20691;-60
2021/04/07 09:56:58;;;;;;;5.00;2.43;;;8.80;72.20;;;;;;5092531;28;20212;-60
2021/04/07 09:59:32;;;;;;;8.10;3.70;;;8.80;72.20;;;;;;5091986;28;20224;-60
2021/04/07 10:01:58;;;;;;;3.73;2.00;;;8.80;69.80;;;;;;5091752;28;20525;-60
2021/04/07 10:04:29;;;;;;;4.17;2.00;;;9.00;70.10;;;;;;5092029;28;20257;-60
2021/04/07 10:06:55;;;;;;;5.33;2.00;;;9.10;69.10;;;;;;5092155;28;20200;-60
2021/04/07 10:09:29;;;;;;;3.93;1.97;;;9.10;67.70;;;;;;5092068;28;20228;-59
2021/04/07 10:11:55;;;;;;;3.43;1.90;;;9.20;67.40;;;;;;5092055;28;20204;-60
2021/04/07 10:14:22;;;;;;;5.87;2.83;;;9.30;67.30;;;;;;5092104;28;20282;-60
2021/04/07 10:16:48;;;;;;;3.33;1.87;;;9.50;68.00;;;;;;5091712;28;20212;-60
2021/04/07 10:19:14;;;;;;;4.03;2.00;;;9.70;65.40;;;;;;5091703;28;20255;-60
2021/04/07 10:21:43;;;;;;;4.80;2.10;;;9.90;65.50;;;;;;5092126;28;20208;-58
2021/04/07 10:24:13;;;;;;;3.87;2.33;;;10.10;64.00;;;;;;5091563;28;20269;-60
2021/04/07 10:26:44;;;;;;;3.60;1.90;;;10.20;62.90;;;;;;5092167;28;20208;-58
2021/04/07 10:29:22;;;;;;;5.13;2.17;;;10.10;62.30;;;;;;5091747;28;20228;-58
2021/04/07 10:31:51;;;;;;;4.57;2.10;;;9.70;65.00;;;;;;5091838;28;20235;-59
2021/04/07 10:34:17;;;;;;;6.70;4.63;;;9.40;66.40;;;;;;5091953;28;20265;-59
2021/04/07 10:36:45;;;;;;;3.40;2.13;;;9.20;67.60;;;;;;5092055;28;20200;-58
2021/04/07 10:39:12;;;;;;;4.23;1.97;;;8.80;68.00;;;;;;5091641;28;20232;-59
2021/04/07 10:41:39;;;;;;;4.37;1.83;;;8.60;67.60;;;;;;5091623;28;20200;-59
2021/04/07 10:44:07;;;;;;;14.83;7.07;;;8.40;68.40;;;;;;5091182;28;20211;-59
2021/04/07 10:46:33;;;;;;;6.03;2.17;;;8.50;68.80;;;;;;5091149;28;20671;-59
2021/04/07 10:49:00;;;;;;;5.70;1.90;;;8.60;69.00;;;;;;5091222;28;20212;-58
2021/04/07 10:51:29;;;;;;;5.40;2.13;;;8.60;69.20;;;;;;5091358;28;20204;-59
2021/04/07 10:53:57;;;;;;;4.87;2.17;;;8.50;69.50;;;;;;5091147;28;20281;-59
2021/04/07 10:56:26;;;;;;;6.03;2.67;;;8.70;69.10;;;;;;5091080;28;20200;-59
2021/04/07 10:58:53;;;;;;;3.70;2.00;;;9.00;67.20;;;;;;5090626;28;20223;-59
2021/04/07 11:01:27;;;;;;;7.80;2.17;;;9.40;66.70;;;;;;5091105;28;20216;-59
2021/04/07 11:03:54;;;;;;;3.53;1.73;;;9.60;67.00;;;;;;5091128;28;20215;-59
2021/04/07 11:06:21;;;;;;;5.30;2.37;;;9.50;65.10;;;;;;5091030;28;20235;-59
2021/04/07 11:08:47;;;;;;;3.50;1.80;;;9.60;65.80;;;;;;5090819;28;20258;-59
2021/04/07 11:11:20;;;;;;;7.80;1.97;;;9.70;65.90;;;;;;5090695;28;20297;-59
2021/04/07 11:13:47;;;;;;;2.80;1.83;;;9.60;64.40;;;;;;5090208;28;20223;-59
2021/04/07 11:16:15;;;;;;;6.33;1.93;;;9.60;64.20;;;;;;5090507;28;20676;-59
2021/04/07 11:18:42;;;;;;;6.87;2.63;;;9.80;63.10;;;;;;5090333;28;20224;-58
2021/04/07 11:21:09;;;;;;;11.53;6.93;;;10.00;60.40;;;;;;5090800;28;20228;-59
2021/04/07 11:23:36;;;;;;;7.67;1.70;;;10.20;60.30;;;;;;5090774;28;20295;-59
2021/04/07 11:26:03;;;;;;;3.73;1.80;;;10.20;60.10;;;;;;5090840;28;20207;-59
2021/04/07 11:28:29;;;;;;;2.90;1.50;;;10.10;60.10;;;;;;5090915;28;20230;-59
2021/04/07 11:30:59;;;;;;;4.27;1.67;;;9.90;60.40;;;;;;5090829;28;20230;-59
2021/04/07 11:33:30;;;;;;;3.93;1.77;;;9.90;60.80;;;;;;5090678;28;20208;-59
2021/04/07 11:36:03;;;;;;;6.03;1.63;;;10.20;59.90;;;;;;5090866;28;20200;-59
2021/04/07 11:38:31;;;;;;;3.67;1.70;;;10.10;58.90;;;;;;5090344;28;20235;-59
2021/04/07 11:44:24;;;;;;;4.33;1.63;;;10.70;58.20;;;;;;5089379;28;20611;-59
2021/04/07 11:46:33;;;;;;;3.60;1.70;;;10.90;57.40;;;;;;5090772;28;20216;-59
2021/04/07 11:48:59;;;;;;;3.97;1.60;;;10.80;57.70;;;;;;5090745;28;20201;-59
2021/04/07 11:51:26;;;;;;;4.73;1.90;;;10.80;57.10;;;;;;5090606;28;20256;-58
2021/04/07 11:53:53;;;;;;;7.00;2.03;;;10.80;57.00;;;;;;5090582;28;20208;-59
2021/04/07 11:56:19;;;;;;;3.87;1.70;;;10.90;57.20;;;;;;5090564;28;20208;-59
2021/04/07 11:58:45;;;;;;;19.93;2.40;;;10.70;56.70;;;;;;5090235;28;20223;-58
2021/04/07 12:01:12;;;;;;;3.97;1.40;;;10.40;56.30;;;;;;5090198;28;20244;-58
2021/04/07 12:03:38;;;;;;;2.57;1.30;;;10.00;55.10;;;;;;5090301;28;20205;-58
2021/04/07 12:06:04;;;;;;;4.30;1.53;;;9.30;57.00;;;;;;5090588;28;20211;-59
2021/04/07 12:08:31;;;;;;;4.47;1.60;;;9.00;57.90;;;;;;5090343;28;20208;-59
2021/04/07 12:10:59;;;;;;;7.20;2.47;;;8.60;59.20;;;;;;5090287;28;20220;-59
2021/04/07 12:13:25;;;;;;;11.07;1.70;;;8.50;60.70;;;;;;5090000;28;20239;-59
2021/04/07 12:15:51;;;;;;;6.37;1.90;;;8.20;61.80;;;;;;5090082;28;20212;-59
2021/04/07 12:18:18;;;;;;;6.43;1.77;;;8.10;62.60;;;;;;5090128;28;20269;-59
2021/04/07 12:20:44;;;;;;;4.90;1.77;;;8.00;63.40;;;;;;5090107;28;20228;-59
2021/04/07 12:23:11;;;;;;;5.03;1.40;;;8.10;64.30;;;;;;5090261;28;20208;-59
2021/04/07 12:25:38;;;;;;;6.63;1.73;;;8.10;64.40;;;;;;5091145;28;20558;-59
2021/04/07 12:28:05;;;;;;;6.87;2.30;;;8.10;64.30;;;;;;5093618;28;20211;-59
2021/04/07 12:30:46;;;;;;;4.77;1.90;;;7.90;64.70;;;;;;5093836;28;20216;-59
2021/04/07 12:33:13;;;;;;;5.30;1.50;;;7.90;65.80;;;;;;5094129;28;20208;-59
2021/04/07 12:35:59;;;;;;;2.43;1.50;;;7.90;66.60;;;;;;5093735;28;20204;-59
2021/04/07 12:38:26;;;;;;;3.73;1.57;;;8.20;66.90;;;;;;5093719;28;20204;-59
2021/04/07 12:40:56;;;;;;;5.13;2.03;;;8.40;67.10;;;;;;5093772;28;20699;-59
2021/04/07 12:43:22;;;;;;;4.77;2.30;;;8.60;67.70;;;;;;5093788;28;20253;-60
2021/04/07 12:45:48;;;;;;;5.13;2.13;;;8.50;69.50;;;;;;5093876;28;20204;-59
2021/04/07 12:48:14;;;;;;;5.07;1.80;;;8.50;69.50;;;;;;5093896;28;20204;-59
2021/04/07 12:50:41;;;;;;;5.57;2.00;;;8.60;69.40;;;;;;5093497;28;20220;-59
2021/04/07 12:53:08;;;;;;;4.30;2.13;;;8.80;70.20;;;;;;5093766;28;20242;-59
2021/04/07 12:55:34;;;;;;;3.57;1.67;;;9.00;70.10;;;;;;5093454;28;20672;-59
2021/04/07 12:58:01;;;;;;;4.87;2.00;;;8.90;68.60;;;;;;5093901;28;20243;-59
2021/04/07 13:00:28;;;;;;;4.83;1.90;;;8.60;68.60;;;;;;5093574;28;20239;-59